Time;durP1;ratioP1;P1;durP2;ratioP2;P2;SDS_P1;SDS_P2;PMS_P1;PMS_P2;Temp;Humidity;BMP_temperature;BMP_pressure;BME280_temperature;BME280_humidity;BME280_pressure;Samples;Min_cycle;Max_cycle;Signal;HPM_P1;HPM_P2
2024/01/22 00:00:40;;;;;;;0.93;0.93;;;;;;;0.19;71.50;98002.72;4967139;28;20053;-72
2024/01/22 00:03:09;;;;;;;0.90;0.90;;;;;;;0.22;71.89;97992.78;4970028;28;20494;-72
2024/01/22 00:05:38;;;;;;;0.90;0.90;;;;;;;0.19;71.97;97979.94;4972915;28;20110;-71
2024/01/22 00:08:07;;;;;;;1.50;1.50;;;;;;;0.23;71.79;97972.63;4958855;28;20550;-74
2024/01/22 00:10:35;;;;;;;1.27;1.27;;;;;;;0.28;72.04;97978.34;4964039;28;20059;-72
2024/01/22 00:13:02;;;;;;;0.90;0.90;;;;;;;0.32;72.05;97966.66;4967603;28;20089;-72
2024/01/22 00:15:30;;;;;;;1.10;1.10;;;;;;;0.43;71.81;97964.00;4970420;28;20490;-75
2024/01/22 00:17:57;;;;;;;1.25;1.25;;;;;;;0.49;71.32;97955.66;4963322;28;20081;-72
2024/01/22 00:20:25;;;;;;;1.65;1.65;;;;;;;0.58;71.21;97959.34;4979050;28;20054;-72
2024/01/22 00:22:54;;;;;;;1.42;1.42;;;;;;;0.58;71.15;97954.06;4975751;28;20049;-72
2024/01/22 00:25:22;;;;;;;0.93;0.93;;;;;;;0.57;71.17;97957.66;4968687;28;20054;-72
2024/01/22 00:27:49;;;;;;;1.00;1.00;;;;;;;0.52;71.59;97952.75;4973304;28;20078;-71
2024/01/22 00:30:17;;;;;;;0.95;0.95;;;;;;;0.49;71.93;97934.66;4973412;28;20130;-74
2024/01/22 00:32:47;;;;;;;1.10;1.10;;;;;;;0.46;72.10;97939.31;4982979;28;20415;-72
2024/01/22 00:35:15;;;;;;;1.33;1.33;;;;;;;0.48;71.99;97932.97;4981621;28;20079;-72
2024/01/22 00:37:43;;;;;;;1.33;1.33;;;;;;;0.49;72.40;97936.44;4968177;28;20043;-72
2024/01/22 00:40:13;;;;;;;1.42;1.42;;;;;;;0.49;72.45;97934.66;4970174;28;20090;-72
2024/01/22 00:42:43;;;;;;;1.20;1.20;;;;;;;0.45;72.57;97916.63;4976436;28;20065;-73
2024/01/22 00:45:11;;;;;;;0.98;0.98;;;;;;;0.41;72.78;97912.59;4979913;28;20067;-73
2024/01/22 00:47:38;;;;;;;1.10;1.10;;;;;;;0.40;72.69;97900.44;4980817;28;20054;-72
2024/01/22 00:50:08;;;;;;;0.80;0.80;;;;;;;0.37;72.88;97901.50;4969288;28;20114;-72
2024/01/22 00:52:35;;;;;;;0.57;0.57;;;;;;;0.36;73.13;97884.94;4969353;28;20396;-74
2024/01/22 00:55:03;;;;;;;1.20;1.20;;;;;;;0.39;73.42;97883.00;4972257;28;20098;-72
2024/01/22 00:57:32;;;;;;;1.10;1.10;;;;;;;0.41;73.49;97867.97;4974295;28;20137;-72
2024/01/22 01:00:00;;;;;;;1.30;1.30;;;;;;;0.49;73.65;97870.81;4970370;28;20039;-71
2024/01/22 01:02:26;;;;;;;1.48;1.48;;;;;;;0.54;73.74;97868.63;4982152;28;20046;-72
2024/01/22 01:04:54;;;;;;;1.05;1.05;;;;;;;0.56;73.58;97872.81;4973096;28;20047;-72
2024/01/22 01:07:23;;;;;;;1.08;1.08;;;;;;;0.55;73.45;97870.28;4958823;28;20566;-72
2024/01/22 01:09:51;;;;;;;1.23;1.23;;;;;;;0.53;73.87;97859.91;4978278;28;20058;-74
2024/01/22 01:12:18;;;;;;;1.05;1.05;;;;;;;0.51;74.18;97845.28;4980408;28;20074;-75
2024/01/22 01:14:47;;;;;;;1.27;1.27;;;;;;;0.52;74.56;97844.31;4960498;28;20057;-75
2024/01/22 01:17:15;;;;;;;1.23;1.23;;;;;;;0.55;74.63;97833.53;4964614;28;20050;-74
2024/01/22 01:19:42;;;;;;;0.85;0.85;;;;;;;0.57;74.96;97821.94;4982564;28;20580;-75
2024/01/22 01:22:10;;;;;;;1.35;1.35;;;;;;;0.62;75.07;97822.38;4970856;28;20046;-74
2024/01/22 01:24:38;;;;;;;1.23;1.23;;;;;;;0.78;75.25;97834.25;4968540;28;20070;-74
2024/01/22 01:27:06;;;;;;;1.45;1.45;;;;;;;0.83;75.54;97827.66;4978636;28;20058;-73
2024/01/22 01:29:33;;;;;;;0.90;0.90;;;;;;;0.90;75.43;97813.06;4967591;28;20047;-74
2024/01/22 01:32:02;;;;;;;1.27;1.27;;;;;;;0.97;75.64;97816.00;4971795;28;20046;-74
2024/01/22 01:34:30;;;;;;;1.08;1.08;;;;;;;1.05;75.85;97821.44;4963270;28;20044;-74
2024/01/22 01:36:58;;;;;;;1.67;1.67;;;;;;;1.11;75.93;97813.03;4981200;28;20045;-74
2024/01/22 01:39:25;;;;;;;0.70;0.70;;;;;;;1.09;76.23;97793.94;4965993;28;20504;-74
2024/01/22 01:41:56;;;;;;;1.15;1.15;;;;;;;1.11;76.21;97792.03;4970908;28;20046;-73
2024/01/22 01:44:53;;;;;;;1.05;1.05;;;;;;;1.08;76.36;97785.22;4956169;28;20053;-74
2024/01/22 01:47:22;;;;;;;0.98;0.98;;;;;;;1.13;76.53;97779.59;4972730;28;20057;-75
2024/01/22 01:49:50;;;;;;;0.20;0.20;;;;;;;1.15;76.68;97782.06;4973556;28;20532;-72
2024/01/22 01:52:18;;;;;;;1.08;1.08;;;;;;;1.20;76.17;97785.13;4975432;28;20122;-74
2024/01/22 01:54:46;;;;;;;1.05;1.05;;;;;;;1.20;75.67;97772.00;4967846;28;20046;-73
2024/01/22 01:57:14;;;;;;;0.43;0.43;;;;;;;1.15;75.97;97775.00;4983840;28;20413;-73
2024/01/22 01:59:43;;;;;;;1.30;1.30;;;;;;;1.13;76.01;97740.16;4979939;28;20058;-74
2024/01/22 02:02:10;;;;;;;1.05;1.05;;;;;;;1.13;76.24;97745.41;4983556;28;20046;-74
2024/01/22 02:04:39;;;;;;;0.93;0.93;;;;;;;1.19;76.73;97752.75;4970901;28;20046;-71
2024/01/22 02:07:07;;;;;;;0.85;0.85;;;;;;;1.28;76.56;97769.53;4977032;28;20513;-73
2024/01/22 02:09:48;;;;;;;1.10;1.10;;;;;;;1.26;76.61;97774.09;4976346;28;20043;-73
2024/01/22 02:12:16;;;;;;;1.00;1.00;;;;;;;1.32;76.71;97766.53;4966340;28;20525;-73
2024/01/22 02:14:44;;;;;;;1.17;1.17;;;;;;;1.33;76.69;97778.69;4974481;28;20514;-73
2024/01/22 02:17:12;;;;;;;1.25;1.25;;;;;;;1.37;76.83;97782.72;4964816;28;20043;-73
2024/01/22 02:19:41;;;;;;;1.15;1.15;;;;;;;1.36;77.23;97778.41;4986061;28;20113;-74
2024/01/22 02:22:09;;;;;;;0.90;0.90;;;;;;;1.39;77.53;97757.13;4962408;28;20066;-73
2024/01/22 02:24:38;;;;;;;1.10;1.10;;;;;;;1.46;77.29;97757.41;4982557;28;20039;-74
2024/01/22 02:27:06;;;;;;;1.23;1.23;;;;;;;1.50;77.47;97750.94;4970400;28;20070;-72
2024/01/22 02:29:33;;;;;;;1.10;1.10;;;;;;;1.61;77.41;97753.47;4978957;28;20093;-71
2024/01/22 02:32:01;;;;;;;1.15;1.15;;;;;;;1.74;77.66;97748.78;4972372;28;20050;-74
2024/01/22 02:34:28;;;;;;;1.30;1.30;;;;;;;1.87;77.89;97737.97;4976154;28;20330;-73
2024/01/22 02:36:57;;;;;;;1.48;1.48;;;;;;;1.99;77.84;97726.34;4979366;28;20170;-72
2024/01/22 02:39:25;;;;;;;1.13;1.13;;;;;;;2.04;77.79;97731.22;4973663;28;20058;-74
2024/01/22 02:41:54;;;;;;;0.80;0.80;;;;;;;2.07;77.65;97731.78;4975752;28;20050;-72
2024/01/22 02:44:22;;;;;;;0.82;0.82;;;;;;;2.13;77.03;97727.75;4971714;28;20105;-72
2024/01/22 02:46:50;;;;;;;1.20;1.20;;;;;;;2.12;77.21;97720.81;4972353;28;20051;-72
2024/01/22 02:49:19;;;;;;;0.85;0.85;;;;;;;2.13;77.29;97718.06;4974510;28;20042;-72
2024/01/22 02:51:47;;;;;;;0.93;0.93;;;;;;;2.29;77.13;97720.13;4976777;28;20490;-73
2024/01/22 02:54:15;;;;;;;1.13;1.13;;;;;;;2.24;77.09;97717.09;4976237;28;20043;-72
2024/01/22 02:56:42;;;;;;;1.00;1.00;;;;;;;2.21;77.23;97715.56;4969527;28;20093;-71
2024/01/22 02:59:15;;;;;;;1.35;1.35;;;;;;;2.31;77.00;97717.34;4958785;28;20062;-72
2024/01/22 03:01:43;;;;;;;1.20;1.20;;;;;;;2.34;76.96;97702.09;4969735;28;20057;-74
2024/01/22 03:04:11;;;;;;;1.10;1.10;;;;;;;2.52;76.30;97715.38;4978731;28;20058;-74
2024/01/22 03:06:41;;;;;;;1.05;1.05;;;;;;;2.66;75.61;97704.41;4977214;28;20051;-74
2024/01/22 03:09:09;;;;;;;1.20;1.20;;;;;;;2.71;75.28;97691.63;4970177;28;20126;-75
2024/01/22 03:11:37;;;;;;;0.90;0.90;;;;;;;2.78;74.75;97697.16;4965598;28;20328;-73
2024/01/22 03:14:05;;;;;;;0.93;0.93;;;;;;;2.78;74.54;97705.91;4971845;28;20042;-74
2024/01/22 03:16:34;;;;;;;0.60;0.60;;;;;;;2.72;74.68;97692.44;4957794;28;20179;-73
2024/01/22 03:19:01;;;;;;;0.85;0.85;;;;;;;2.77;74.54;97695.50;4974968;28;20508;-74
2024/01/22 03:21:29;;;;;;;0.90;0.90;;;;;;;3.04;74.20;97695.53;4957472;28;20525;-74
2024/01/22 03:23:56;;;;;;;0.88;0.88;;;;;;;3.04;74.24;97698.16;4981871;28;20042;-74
2024/01/22 03:26:24;;;;;;;1.20;1.20;;;;;;;3.22;73.91;97685.88;4957392;28;20141;-73
2024/01/22 03:28:52;;;;;;;0.95;0.95;;;;;;;3.65;72.22;97697.56;4979608;28;20093;-71
2024/01/22 03:31:21;;;;;;;1.15;1.15;;;;;;;4.08;69.79;97675.72;4981121;28;20050;-73
2024/01/22 03:33:50;;;;;;;1.10;1.10;;;;;;;4.18;68.53;97671.19;4966434;28;20447;-74
2024/01/22 03:36:18;;;;;;;1.05;1.05;;;;;;;4.24;67.72;97675.88;4971161;28;20042;-73
2024/01/22 03:38:46;;;;;;;0.90;0.90;;;;;;;4.30;67.33;97667.31;4951095;28;20128;-73
2024/01/22 03:41:14;;;;;;;1.33;1.33;;;;;;;4.32;66.54;97665.34;4984754;28;20122;-73
2024/01/22 03:43:41;;;;;;;0.43;0.43;;;;;;;4.37;66.71;97664.88;4971133;28;20384;-73
2024/01/22 03:46:09;;;;;;;0.88;0.88;;;;;;;4.29;67.06;97646.34;4977752;28;20060;-73
2024/01/22 03:48:36;;;;;;;0.90;0.90;;;;;;;4.35;67.45;97637.81;4971955;28;20126;-73
2024/01/22 03:51:06;;;;;;;0.80;0.80;;;;;;;4.49;67.78;97608.16;4968561;28;20075;-74
2024/01/22 03:53:33;;;;;;;1.17;1.17;;;;;;;4.59;67.63;97621.25;4971206;28;20038;-74
2024/01/22 03:56:04;;;;;;;0.20;0.20;;;;;;;4.62;68.15;97619.16;4971870;28;20490;-73
2024/01/22 03:58:32;;;;;;;0.20;0.20;;;;;;;4.63;68.43;97610.22;4977972;28;20387;-74
2024/01/22 04:01:00;;;;;;;1.50;1.50;;;;;;;4.73;68.57;97605.66;4959236;28;20138;-74
2024/01/22 04:03:28;;;;;;;0.95;0.95;;;;;;;4.70;69.62;97602.50;4965986;28;20047;-74
2024/01/22 04:05:56;;;;;;;1.00;1.00;;;;;;;4.69;69.97;97600.84;4968038;28;20035;-74
2024/01/22 04:08:25;;;;;;;0.30;0.30;;;;;;;4.68;70.26;97599.16;4970611;28;20043;-73
2024/01/22 04:10:53;;;;;;;1.17;1.17;;;;;;;4.69;70.77;97567.28;4976504;28;20549;-73
2024/01/22 04:13:21;;;;;;;0.45;0.45;;;;;;;4.75;70.86;97592.28;4970872;28;20116;-73
2024/01/22 04:16:01;;;;;;;1.02;1.02;;;;;;;4.37;70.53;97585.63;4971875;28;20058;-73
2024/01/22 04:18:29;;;;;;;1.05;1.05;;;;;;;3.73;70.35;97588.63;4970532;28;20130;-73
2024/01/22 04:20:57;;;;;;;0.73;0.73;;;;;;;3.35;71.26;97590.56;4963862;28;20094;-73
2024/01/22 04:23:27;;;;;;;0.88;0.88;;;;;;;3.17;71.68;97587.09;4973472;28;20042;-73
2024/01/22 04:25:54;;;;;;;0.77;0.77;;;;;;;3.11;72.24;97599.09;4969264;28;20051;-74
2024/01/22 04:28:22;;;;;;;1.10;1.10;;;;;;;3.06;71.94;97577.59;4978600;28;20046;-74
2024/01/22 04:30:50;;;;;;;1.13;1.13;;;;;;;3.03;72.08;97598.97;4976686;28;20093;-73
2024/01/22 04:33:17;;;;;;;0.20;0.20;;;;;;;3.00;71.84;97598.44;4970475;28;20526;-74
2024/01/22 04:35:45;;;;;;;1.00;1.00;;;;;;;3.03;72.10;97598.97;4970840;28;20042;-74
2024/01/22 04:38:13;;;;;;;1.38;1.38;;;;;;;2.99;72.42;97597.63;4968081;28;20042;-74
2024/01/22 04:40:42;;;;;;;1.02;1.02;;;;;;;2.96;72.18;97611.09;4977592;28;20043;-74
2024/01/22 04:43:09;;;;;;;0.98;0.98;;;;;;;2.95;72.59;97622.59;4967282;28;20061;-74
2024/01/22 04:45:37;;;;;;;1.02;1.02;;;;;;;2.85;72.56;97604.19;4962328;28;20046;-74
2024/01/22 04:48:05;;;;;;;0.30;0.30;;;;;;;2.87;72.87;97625.16;4970284;28;20384;-73
2024/01/22 04:50:32;;;;;;;1.00;1.00;;;;;;;2.82;72.89;97603.66;4971699;28;20078;-72
2024/01/22 04:53:00;;;;;;;0.43;0.43;;;;;;;2.74;73.23;97606.19;4963452;28;20418;-73
2024/01/22 04:55:27;;;;;;;0.82;0.82;;;;;;;2.68;73.28;97580.44;4960422;28;20049;-73
2024/01/22 04:58:02;;;;;;;0.98;0.98;;;;;;;2.69;73.45;97576.84;4968121;28;20524;-74
2024/01/22 05:00:29;;;;;;;1.10;1.10;;;;;;;2.66;73.65;97571.84;4969902;28;20130;-73
2024/01/22 05:02:57;;;;;;;0.40;0.40;;;;;;;2.71;74.12;97561.69;4968154;28;20365;-74
2024/01/22 05:05:25;;;;;;;0.90;0.90;;;;;;;2.77;74.15;97545.31;4966085;28;20067;-72
2024/01/22 05:07:52;;;;;;;0.95;0.95;;;;;;;2.82;74.73;97532.50;4968503;28;20125;-71
2024/01/22 05:10:20;;;;;;;1.30;1.30;;;;;;;3.02;75.11;97536.66;4974602;28;20043;-73
2024/01/22 05:12:47;;;;;;;0.93;0.93;;;;;;;3.41;75.38;97528.50;4980037;28;20134;-74
2024/01/22 05:15:16;;;;;;;0.75;0.75;;;;;;;3.61;74.89;97527.34;4981065;28;20061;-74
2024/01/22 05:17:44;;;;;;;0.30;0.30;;;;;;;3.98;74.52;97527.94;4970378;28;20359;-73
2024/01/22 05:20:12;;;;;;;1.52;1.52;;;;;;;4.39;73.69;97551.94;4979053;28;20062;-73
2024/01/22 05:22:40;;;;;;;1.00;1.00;;;;;;;4.58;72.81;97541.16;4976221;28;20039;-73
2024/01/22 05:25:09;;;;;;;0.28;0.22;;;;;;;4.87;72.05;97532.03;4974743;28;20398;-74
2024/01/22 05:27:37;;;;;;;0.90;0.90;;;;;;;4.93;71.58;97537.50;4972474;28;20495;-74
2024/01/22 05:30:05;;;;;;;1.25;1.25;;;;;;;4.96;71.38;97539.00;4973729;28;20202;-74
2024/01/22 05:32:36;;;;;;;1.65;1.65;;;;;;;4.97;70.88;97533.53;4975471;28;20050;-73
2024/01/22 05:35:04;;;;;;;0.93;0.93;;;;;;;4.94;71.17;97543.59;4979480;28;20101;-74
2024/01/22 05:37:33;;;;;;;0.90;0.90;;;;;;;4.97;70.62;97541.47;4971417;28;20039;-74
2024/01/22 05:40:01;;;;;;;1.05;1.05;;;;;;;4.85;70.95;97503.09;4977330;28;20109;-75
2024/01/22 05:42:28;;;;;;;0.70;0.70;;;;;;;4.92;70.37;97511.19;4972760;28;20050;-74
2024/01/22 05:44:56;;;;;;;1.45;1.45;;;;;;;4.92;70.11;97490.03;4969112;28;20595;-74
2024/01/22 05:47:24;;;;;;;0.77;0.77;;;;;;;4.88;70.29;97449.88;4977316;28;20057;-73
2024/01/22 05:49:53;;;;;;;0.20;0.20;;;;;;;4.91;70.15;97481.28;4969241;28;20544;-73
2024/01/22 05:52:21;;;;;;;0.30;0.30;;;;;;;4.74;70.52;97483.06;4963766;28;20482;-72
2024/01/22 05:54:48;;;;;;;0.98;0.98;;;;;;;4.64;70.78;97477.09;4968952;28;20057;-72
2024/01/22 05:57:16;;;;;;;0.80;0.80;;;;;;;4.58;70.61;97461.03;4966971;28;20058;-73
2024/01/22 05:59:43;;;;;;;0.30;0.30;;;;;;;4.39;70.68;97448.91;4977002;28;20414;-72
2024/01/22 06:02:11;;;;;;;0.90;0.90;;;;;;;4.24;70.88;97439.97;4964268;28;20133;-73
2024/01/22 06:04:39;;;;;;;0.85;0.85;;;;;;;4.31;70.89;97446.25;4971948;28;20039;-72
2024/01/22 06:07:08;;;;;;;1.05;1.05;;;;;;;4.14;71.36;97450.66;4974924;28;20513;-74
2024/01/22 06:09:37;;;;;;;1.35;1.35;;;;;;;4.18;71.04;97457.25;4977137;28;20054;-73
2024/01/22 06:12:06;;;;;;;1.02;1.02;;;;;;;4.18;70.82;97432.66;4977248;28;20074;-73
2024/01/22 06:14:33;;;;;;;1.23;1.23;;;;;;;4.08;70.82;97430.13;4986198;28;20199;-73
2024/01/22 06:17:01;;;;;;;0.30;0.30;;;;;;;4.05;70.98;97446.28;4970812;28;20406;-73
2024/01/22 06:19:29;;;;;;;1.20;1.20;;;;;;;4.07;70.67;97436.41;4979220;28;20610;-73
2024/01/22 06:21:56;;;;;;;1.48;1.48;;;;;;;4.15;70.62;97440.91;4972626;28;20101;-73
2024/01/22 06:24:25;;;;;;;0.98;0.98;;;;;;;4.15;70.64;97440.91;4965062;28;20058;-73
2024/01/22 06:26:53;;;;;;;0.93;0.93;;;;;;;4.13;70.53;97416.47;4973518;28;20058;-73
2024/01/22 06:29:21;;;;;;;0.85;0.85;;;;;;;4.15;70.37;97404.78;4977062;28;20044;-73
2024/01/22 06:31:48;;;;;;;0.38;0.38;;;;;;;4.09;70.31;97428.31;4976402;28;20431;-73
2024/01/22 06:34:16;;;;;;;1.35;1.35;;;;;;;4.03;69.97;97443.81;4976844;28;20074;-73
2024/01/22 06:36:44;;;;;;;1.48;1.48;;;;;;;3.99;69.64;97431.09;4974400;28;20063;-74
2024/01/22 06:39:12;;;;;;;0.93;0.93;;;;;;;3.82;69.70;97418.78;4968156;28;20038;-73
2024/01/22 06:41:42;;;;;;;0.93;0.93;;;;;;;3.79;69.82;97416.47;4971316;28;20137;-73
2024/01/22 06:44:09;;;;;;;0.82;0.82;;;;;;;3.70;69.90;97394.47;4969122;28;20114;-73
2024/01/22 06:46:37;;;;;;;0.98;0.98;;;;;;;3.74;70.00;97408.19;4978019;28;20086;-73
2024/01/22 06:49:06;;;;;;;1.00;1.00;;;;;;;3.70;70.12;97407.69;4972772;28;20042;-73
2024/01/22 06:51:37;;;;;;;;;;;;;;;3.69;70.17;97412.13;4958824;28;20091;-73
2024/01/22 06:54:13;;;;;;;0.70;0.70;;;;;;;3.64;70.01;97406.47;4964939;28;19988;-73
2024/01/22 06:56:42;;;;;;;1.00;1.00;;;;;;;3.53;70.00;97416.47;4972092;28;20082;-73
2024/01/22 06:59:10;;;;;;;1.30;1.30;;;;;;;3.42;69.27;97414.09;4967526;28;20058;-73
2024/01/22 07:01:37;;;;;;;1.05;1.05;;;;;;;3.26;69.22;97409.53;4966073;28;20043;-73
2024/01/22 07:04:05;;;;;;;0.28;0.28;;;;;;;3.21;69.67;97409.16;4975030;28;20130;-74
2024/01/22 07:06:33;;;;;;;1.15;1.15;;;;;;;3.17;69.76;97397.25;4982429;28;20038;-73
2024/01/22 07:09:00;;;;;;;0.90;0.90;;;;;;;3.14;70.51;97393.09;4976120;28;20042;-73
2024/01/22 07:11:28;;;;;;;1.30;1.30;;;;;;;3.28;70.54;97373.28;4977253;28;20126;-73
2024/01/22 07:13:59;;;;;;;0.30;0.30;;;;;;;3.34;70.64;97367.38;4981325;28;20098;-73
2024/01/22 07:16:26;;;;;;;0.40;0.40;;;;;;;3.37;70.21;97390.81;4962626;28;20413;-73
2024/01/22 07:18:54;;;;;;;1.40;1.40;;;;;;;3.36;70.87;97398.88;4969212;28;20502;-73
2024/01/22 07:21:24;;;;;;;0.90;0.90;;;;;;;3.41;71.06;97393.97;4971190;28;20135;-74
2024/01/22 07:23:51;;;;;;;1.08;1.08;;;;;;;3.41;70.88;97384.25;4968504;28;20093;-74
2024/01/22 07:26:19;;;;;;;0.93;0.93;;;;;;;3.48;70.57;97387.91;4969361;28;20101;-73
2024/01/22 07:28:47;;;;;;;0.88;0.88;;;;;;;3.51;70.37;97378.88;4981997;28;20054;-73
2024/01/22 07:31:18;;;;;;;0.80;0.80;;;;;;;3.49;70.49;97384.31;4970169;28;20050;-73
2024/01/22 07:33:46;;;;;;;0.77;0.77;;;;;;;3.48;70.27;97387.09;4973798;28;20055;-73
2024/01/22 07:36:14;;;;;;;1.27;1.27;;;;;;;3.46;70.41;97403.06;4970250;28;20043;-73
2024/01/22 07:38:41;;;;;;;1.08;1.08;;;;;;;3.47;70.79;97425.00;4976333;28;20058;-74
2024/01/22 07:41:10;;;;;;;0.85;0.85;;;;;;;3.49;70.58;97437.06;4970298;28;20047;-74
2024/01/22 07:43:37;;;;;;;1.00;1.00;;;;;;;3.44;71.29;97420.84;4971228;28;20110;-72
2024/01/22 07:46:05;;;;;;;0.40;0.40;;;;;;;3.47;71.55;97431.09;4970537;28;20663;-72
2024/01/22 07:48:34;;;;;;;1.10;1.10;;;;;;;3.40;71.29;97419.53;4971594;28;20050;-72
2024/01/22 07:51:02;;;;;;;0.75;0.75;;;;;;;3.49;71.24;97405.41;4971140;28;20066;-72
2024/01/22 07:53:29;;;;;;;1.05;1.05;;;;;;;3.57;71.05;97386.97;4968189;28;20043;-72
2024/01/22 07:55:58;;;;;;;0.30;0.30;;;;;;;3.62;70.99;97402.34;4976145;28;20462;-72
2024/01/22 07:58:25;;;;;;;0.35;0.35;;;;;;;3.76;70.97;97407.03;4973915;28;20442;-74
2024/01/22 08:00:53;;;;;;;1.17;1.17;;;;;;;3.86;70.62;97394.56;4977094;28;20042;-72
2024/01/22 08:03:22;;;;;;;0.65;0.65;;;;;;;3.99;70.06;97381.75;4978077;28;20089;-72
2024/01/22 08:05:51;;;;;;;0.88;0.88;;;;;;;4.03;69.66;97374.34;4976467;28;20078;-72
2024/01/22 08:08:19;;;;;;;0.30;0.30;;;;;;;4.01;69.27;97386.88;4980767;28;20453;-74
2024/01/22 08:10:47;;;;;;;1.23;1.23;;;;;;;4.00;68.79;97382.56;4977255;28;20058;-72
2024/01/22 08:13:15;;;;;;;0.20;0.20;;;;;;;4.05;68.36;97373.19;4971345;28;20451;-72
2024/01/22 08:15:43;;;;;;;0.93;0.93;;;;;;;4.07;68.17;97360.66;4970531;28;20047;-71
2024/01/22 08:18:12;;;;;;;1.00;1.00;;;;;;;4.12;68.36;97354.91;4965648;28;20047;-72
2024/01/22 08:20:39;;;;;;;0.93;0.93;;;;;;;4.15;67.91;97357.22;4970610;28;20070;-72
2024/01/22 08:23:09;;;;;;;1.00;1.00;;;;;;;4.18;67.41;97350.78;4971786;28;20526;-72
2024/01/22 08:25:37;;;;;;;0.93;0.93;;;;;;;4.20;67.13;97354.91;4979884;28;20046;-74
2024/01/22 08:28:05;;;;;;;0.20;0.20;;;;;;;4.23;66.93;97348.50;4976990;28;20391;-75
2024/01/22 08:30:32;;;;;;;1.10;1.10;;;;;;;4.26;66.89;97341.06;4984597;28;20502;-72
2024/01/22 08:33:00;;;;;;;0.82;0.82;;;;;;;4.31;66.72;97330.03;4968070;28;20097;-73
2024/01/22 08:35:28;;;;;;;0.88;0.88;;;;;;;4.33;66.70;97323.59;4969925;28;20071;-72
2024/01/22 08:37:56;;;;;;;1.08;1.08;;;;;;;4.39;66.37;97338.78;4972928;28;20039;-72
2024/01/22 08:40:26;;;;;;;0.65;0.65;;;;;;;4.43;66.22;97331.38;4968728;28;20047;-72
2024/01/22 08:42:56;;;;;;;0.80;0.80;;;;;;;4.36;66.46;97327.75;4979030;28;20089;-72
2024/01/22 08:45:23;;;;;;;1.17;1.17;;;;;;;4.28;66.44;97322.41;4968014;28;20038;-73
2024/01/22 08:47:51;;;;;;;0.22;0.22;;;;;;;4.21;66.63;97324.06;4976432;28;20315;-72
2024/01/22 08:50:21;;;;;;;1.23;1.23;;;;;;;4.13;66.46;97311.66;4977497;28;20057;-72
2024/01/22 08:52:52;;;;;;;1.15;1.15;;;;;;;4.02;66.36;97331.28;4970713;28;20506;-72
2024/01/22 08:55:22;;;;;;;1.30;1.30;;;;;;;3.92;66.59;97319.19;4974854;28;20046;-72
2024/01/22 08:57:53;;;;;;;1.00;1.00;;;;;;;3.86;66.70;97335.66;4983894;28;20069;-74
2024/01/22 09:00:21;;;;;;;0.88;0.88;;;;;;;3.79;67.17;97329.38;4961761;28;20046;-74
2024/01/22 09:02:49;;;;;;;0.55;0.55;;;;;;;3.78;67.55;97359.38;4970114;28;20438;-72
2024/01/22 09:05:17;;;;;;;0.98;0.98;;;;;;;3.79;67.74;97368.94;4973379;28;20541;-72
2024/01/22 09:07:46;;;;;;;0.93;0.93;;;;;;;3.84;67.74;97353.47;4977204;28;20495;-71
2024/01/22 09:10:14;;;;;;;0.98;0.98;;;;;;;3.99;67.34;97351.88;4978759;28;20057;-72
2024/01/22 09:12:42;;;;;;;0.82;0.82;;;;;;;4.02;67.64;97362.13;4971613;28;20046;-71
2024/01/22 09:15:11;;;;;;;0.90;0.90;;;;;;;3.99;67.79;97347.44;4974864;28;20054;-71
2024/01/22 09:17:39;;;;;;;0.75;0.75;;;;;;;3.99;67.85;97336.88;4967962;28;20035;-72
2024/01/22 09:20:08;;;;;;;1.38;1.38;;;;;;;4.07;67.89;97328.97;4981550;28;20049;-71
2024/01/22 09:22:36;;;;;;;1.17;1.17;;;;;;;4.20;67.90;97332.97;4973074;28;20061;-72
2024/01/22 09:25:05;;;;;;;1.42;1.42;;;;;;;4.26;67.99;97334.94;4970030;28;20054;-72
2024/01/22 09:27:32;;;;;;;0.30;0.30;;;;;;;4.34;67.94;97327.06;4971236;28;20403;-72
2024/01/22 09:30:00;;;;;;;1.05;1.05;;;;;;;4.45;67.85;97339.97;4972005;28;20054;-72
2024/01/22 09:32:29;;;;;;;1.00;1.00;;;;;;;4.52;67.57;97325.09;4972226;28;20047;-71
2024/01/22 09:34:57;;;;;;;0.75;0.75;;;;;;;4.66;67.59;97342.97;4978102;28;20105;-72
2024/01/22 09:37:25;;;;;;;0.75;0.75;;;;;;;4.62;67.54;97336.34;4975869;28;20077;-72
2024/01/22 09:39:52;;;;;;;1.08;1.08;;;;;;;4.66;67.51;97335.03;4975913;28;20100;-72
2024/01/22 09:42:20;;;;;;;0.95;0.95;;;;;;;4.66;67.23;97324.47;4977281;28;20046;-74
2024/01/22 09:44:49;;;;;;;0.88;0.88;;;;;;;4.66;67.50;97307.78;4977247;28;20121;-72
2024/01/22 09:47:17;;;;;;;0.98;0.98;;;;;;;4.90;67.95;97322.78;4976446;28;20043;-72
2024/01/22 09:49:48;;;;;;;0.73;0.73;;;;;;;5.04;67.79;97308.91;4979914;28;20509;-72
2024/01/22 09:52:17;;;;;;;0.88;0.88;;;;;;;5.24;68.50;97312.03;4975478;28;20047;-72
2024/01/22 09:54:45;;;;;;;1.05;1.05;;;;;;;5.39;68.26;97321.75;4974056;28;20117;-71
2024/01/22 09:57:17;;;;;;;0.93;0.93;;;;;;;5.63;67.79;97302.31;4976638;28;20050;-72
2024/01/22 09:59:45;;;;;;;0.98;0.98;;;;;;;5.76;67.35;97331.75;4979607;28;20103;-71
2024/01/22 10:02:15;;;;;;;1.00;1.00;;;;;;;5.72;67.44;97317.19;4974754;28;20494;-74
2024/01/22 10:04:44;;;;;;;0.70;0.70;;;;;;;5.72;68.13;97337.53;4977487;28;20039;-72
2024/01/22 10:07:15;;;;;;;1.05;1.05;;;;;;;5.71;68.50;97326.13;4979450;28;20043;-72
2024/01/22 10:09:43;;;;;;;1.02;1.02;;;;;;;5.68;68.67;97323.00;4988144;28;20042;-72
2024/01/22 10:12:12;;;;;;;0.75;0.75;;;;;;;5.59;69.85;97316.91;4973601;28;20073;-71
2024/01/22 10:14:41;;;;;;;1.10;1.10;;;;;;;5.52;70.84;97306.16;4980408;28;20042;-73
2024/01/22 10:17:16;;;;;;;0.20;0.20;;;;;;;5.48;71.86;97302.22;4968905;28;20394;-72
2024/01/22 10:19:45;;;;;;;1.02;1.02;;;;;;;5.48;72.27;97309.34;4979482;28;20051;-71
2024/01/22 10:22:14;;;;;;;1.25;1.25;;;;;;;5.49;73.40;97295.94;4982751;28;20047;-71
2024/01/22 10:24:41;;;;;;;0.88;0.88;;;;;;;5.57;73.59;97278.38;4973585;28;20065;-72
2024/01/22 10:27:15;;;;;;;1.00;1.00;;;;;;;5.50;74.28;97281.69;4975477;28;20053;-72
2024/01/22 10:29:44;;;;;;;1.02;1.02;;;;;;;5.56;74.91;97274.06;4965512;28;20320;-71
2024/01/22 10:32:12;;;;;;;0.82;0.82;;;;;;;5.69;74.60;97282.28;4998156;28;20050;-71
2024/01/22 10:35:08;;;;;;;0.85;0.85;;;;;;;5.77;74.51;97282.25;4980069;28;20049;-72
2024/01/22 10:37:41;;;;;;;0.88;0.88;;;;;;;5.89;74.03;97257.91;4967233;28;20047;-72
2024/01/22 10:40:11;;;;;;;1.27;1.27;;;;;;;5.91;73.78;97249.78;4975749;28;20618;-72
2024/01/22 10:42:40;;;;;;;0.93;0.93;;;;;;;6.05;73.32;97243.72;4977639;28;20051;-71
2024/01/22 10:45:11;;;;;;;0.88;0.88;;;;;;;6.10;73.24;97236.09;4970176;28;20506;-72
2024/01/22 10:47:39;;;;;;;1.02;1.02;;;;;;;6.11;73.55;97261.59;4971697;28;20051;-73
2024/01/22 10:50:08;;;;;;;0.25;0.25;;;;;;;6.13;74.02;97234.91;4981874;28;20461;-72
2024/01/22 10:52:36;;;;;;;0.88;0.88;;;;;;;6.15;74.41;97257.56;4970757;28;20049;-72
2024/01/22 10:55:06;;;;;;;0.88;0.88;;;;;;;6.11;75.06;97266.06;4973791;28;20059;-72
2024/01/22 10:57:37;;;;;;;1.00;1.00;;;;;;;6.09;75.48;97241.56;4951280;28;20130;-75
2024/01/22 11:00:08;;;;;;;0.75;0.75;;;;;;;5.97;76.54;97257.03;4976430;28;20078;-72
2024/01/22 11:02:38;;;;;;;0.43;0.43;;;;;;;5.92;76.99;97253.25;4983217;28;20505;-73
2024/01/22 11:05:11;;;;;;;0.90;0.90;;;;;;;5.92;76.93;97255.91;4982451;28;20054;-72
2024/01/22 11:07:40;;;;;;;0.65;0.65;;;;;;;5.88;77.29;97243.00;4978766;28;20057;-72
2024/01/22 11:10:11;;;;;;;1.08;1.08;;;;;;;5.85;77.75;97237.19;4984927;28;20050;-72
2024/01/22 11:12:42;;;;;;;1.48;1.48;;;;;;;5.79;78.07;97257.25;4976976;28;20066;-72
2024/01/22 11:15:10;;;;;;;0.32;0.32;;;;;;;5.75;78.41;97244.53;4983440;28;20418;-74
2024/01/22 11:17:37;;;;;;;0.95;0.95;;;;;;;5.73;78.37;97263.22;4970794;28;20054;-75
2024/01/22 11:20:15;;;;;;;1.00;1.00;;;;;;;5.74;77.71;97256.13;4977484;28;20046;-73
2024/01/22 11:22:42;;;;;;;0.75;0.75;;;;;;;5.78;77.59;97275.97;4987034;28;20046;-72
2024/01/22 11:25:13;;;;;;;0.80;0.80;;;;;;;5.75;77.35;97263.88;4976157;28;20494;-72
2024/01/22 11:27:42;;;;;;;0.95;0.95;;;;;;;5.71;77.17;97261.78;4976113;28;20046;-72
2024/01/22 11:30:27;;;;;;;0.93;0.93;;;;;;;5.75;76.52;97258.59;4979872;28;20096;-71
2024/01/22 11:32:55;;;;;;;0.93;0.93;;;;;;;5.74;76.31;97254.28;4999469;23;20040;-72
2024/01/22 11:35:33;;;;;;;1.02;1.02;;;;;;;5.72;75.79;97237.75;4954538;28;20051;-71
2024/01/22 11:38:02;;;;;;;0.35;0.35;;;;;;;5.75;75.81;97231.28;4953259;28;20426;-71
2024/01/22 11:40:52;;;;;;;1.17;1.17;;;;;;;5.76;75.56;97223.19;4956352;28;20502;-71
2024/01/22 11:43:22;;;;;;;0.77;0.77;;;;;;;5.76;75.44;97225.00;4949443;28;20122;-71
2024/01/22 11:45:56;;;;;;;0.80;0.80;;;;;;;5.76;75.17;97204.66;4955226;28;20043;-71
2024/01/22 11:48:26;;;;;;;1.10;1.10;;;;;;;5.80;75.04;97197.19;4959489;28;20047;-71